West Branch, Iowa
Current Conditions -  °F | °C
As of 9:52 AM on Friday 19 Dec 2014 (Local Time) from KIOW Reporting Station
Overcast Overcast  
Wind Chill: -8°   Ceiling: 5000
Heat Index: -3°   Visibility: 8mi
Dew Point: -7°   Wind: 7mph
Humidity: 78%   Direction: 120°ESE
Pressure: 30.35"   Gusts: NA
Location:  41.67°N, 91.35°W
Report Text: KIOW 191552Z AUTO 12006KT 8SM OVC050 M03/M07 A3035 RMK AO2 SLP287 T10331067
Loading
Personal Weather Stations






























Interactive Weather Map New forecast layout! Learn more

10-Day Weather Forecast

Advertisements
Track Severe Weather on mobile